Time,TemperatureF,DewpointF,PressureIn,WindDirection,WindDirectionDegrees,WindSpeedMPH,WindSpeedGustMPH,Humidity,HourlyPrecipIn,Conditions,Clouds,dailyrainin,SoftwareType,DateUTC
2013-05-04 00:05:00,54.9,49.0,29.76,South,175,0.0,-999.0,80,-99.99,,,0.00,weatherlink.com 1.10,2013-05-04 07:05:00,
2013-05-04 00:21:00,54.3,48.0,29.76,South,175,0.0,-999.0,80,-99.99,,,0.00,weatherlink.com 1.10,2013-05-04 07:21:00,
2013-05-04 00:37:00,53.9,48.0,29.75,South,175,0.0,-999.0,81,-99.99,,,0.00,weatherlink.com 1.10,2013-05-04 07:37:00,
2013-05-04 00:51:00,53.5,48.0,29.75,South,175,0.0,-999.0,81,-99.99,,,0.00,weatherlink.com 1.10,2013-05-04 07:51:00,
2013-05-04 01:06:00,53.2,48.0,29.75,South,175,0.0,-999.0,82,-99.99,,,0.00,weatherlink.com 1.10,2013-05-04 08:06:00,
2013-05-04 01:21:00,52.8,47.0,29.74,South,175,0.0,-999.0,82,-99.99,,,0.00,weatherlink.com 1.10,2013-05-04 08:21:00,
2013-05-04 01:36:00,52.3,47.0,29.73,South,175,0.0,-999.0,82,-99.99,,,0.00,weatherlink.com 1.10,2013-05-04 08:36:00,
2013-05-04 01:51:00,52.0,47.0,29.73,South,175,0.0,-999.0,84,-99.99,,,0.00,weatherlink.com 1.10,2013-05-04 08:51:00,
2013-05-04 02:06:00,51.6,47.0,29.72,South,175,0.0,-999.0,84,-99.99,,,0.00,weatherlink.com 1.10,2013-05-04 09:06:00,
2013-05-04 02:21:00,51.3,47.0,29.72,South,175,0.0,-999.0,85,-99.99,,,0.00,weatherlink.com 1.10,2013-05-04 09:21:00,
2013-05-04 02:36:00,51.0,47.0,29.72,South,175,0.0,-999.0,85,-99.99,,,0.00,weatherlink.com 1.10,2013-05-04 09:36:00,
2013-05-04 02:51:00,50.6,46.0,29.72,South,175,0.0,-999.0,85,-99.99,,,0.00,weatherlink.com 1.10,2013-05-04 09:51:00,
2013-05-04 03:06:00,50.2,46.0,29.72,South,175,0.0,-999.0,85,-99.99,,,0.00,weatherlink.com 1.10,2013-05-04 10:06:00,
2013-05-04 03:21:00,49.8,46.0,29.71,South,175,0.0,-999.0,85,-99.99,,,0.00,weatherlink.com 1.10,2013-05-04 10:21:00,
2013-05-04 03:36:00,49.5,45.0,29.71,South,175,0.0,-999.0,84,-99.99,,,0.00,weatherlink.com 1.10,2013-05-04 10:36:00,
2013-05-04 03:51:00,49.2,45.0,29.71,South,175,0.0,-999.0,85,-99.99,,,0.00,weatherlink.com 1.10,2013-05-04 10:51:00,
2013-05-04 04:06:00,48.9,45.0,29.71,South,175,0.0,-999.0,85,-99.99,,,0.00,weatherlink.com 1.10,2013-05-04 11:06:00,
2013-05-04 04:21:00,48.8,45.0,29.71,South,175,0.0,-999.0,86,-99.99,,,0.00,weatherlink.com 1.10,2013-05-04 11:21:00,
2013-05-04 04:36:00,48.7,45.0,29.70,South,175,0.0,-999.0,86,-99.99,,,0.00,weatherlink.com 1.10,2013-05-04 11:36:00,
2013-05-04 04:51:00,48.5,45.0,29.70,South,175,0.0,-999.0,86,-99.99,,,0.00,weatherlink.com 1.10,2013-05-04 11:51:00,
2013-05-04 05:06:00,48.3,44.0,29.70,South,175,0.0,-999.0,86,-99.99,,,0.00,weatherlink.com 1.10,2013-05-04 12:06:00,
2013-05-04 05:21:00,48.2,45.0,29.70,South,175,0.0,-999.0,87,-99.99,,,0.00,weatherlink.com 1.10,2013-05-04 12:21:00,
2013-05-04 05:36:00,48.1,44.0,29.70,South,175,0.0,-999.0,87,-99.99,,,0.00,weatherlink.com 1.10,2013-05-04 12:36:00,
2013-05-04 05:51:00,48.1,44.0,29.69,South,175,0.0,-999.0,87,-99.99,,,0.00,weatherlink.com 1.10,2013-05-04 12:51:00,
2013-05-04 06:06:00,48.0,44.0,29.69,South,175,0.0,-999.0,86,-99.99,,,0.00,weatherlink.com 1.10,2013-05-04 13:06:00,
2013-05-04 06:21:00,47.9,44.0,29.68,South,175,0.0,-999.0,86,-99.99,,,0.00,weatherlink.com 1.10,2013-05-04 13:21:00,
2013-05-04 06:36:00,47.9,44.0,29.69,South,175,0.0,-999.0,86,-99.99,,,0.00,weatherlink.com 1.10,2013-05-04 13:36:00,
2013-05-04 06:51:00,47.9,44.0,29.68,South,175,0.0,-999.0,86,-99.99,,,0.00,weatherlink.com 1.10,2013-05-04 13:51:00,
2013-05-04 07:06:00,48.1,44.0,29.69,South,175,0.0,-999.0,86,-99.99,,,0.00,weatherlink.com 1.10,2013-05-04 14:06:00,
2013-05-04 07:21:00,48.4,45.0,29.69,South,175,0.0,-999.0,87,-99.99,,,0.00,weatherlink.com 1.10,2013-05-04 14:21:00,
2013-05-04 07:36:00,49.1,45.0,29.69,South,175,0.0,-999.0,84,-99.99,,,0.00,weatherlink.com 1.10,2013-05-04 14:36:00,
2013-05-04 07:51:00,50.1,46.0,29.69,South,175,0.0,-999.0,84,-99.99,,,0.00,weatherlink.com 1.10,2013-05-04 14:51:00,
2013-05-04 08:06:00,52.4,47.0,29.69,South,175,0.0,-999.0,81,-99.99,,,0.00,weatherlink.com 1.10,2013-05-04 15:06:00,
2013-05-04 08:21:00,54.8,48.0,29.68,South,175,0.0,-999.0,79,-99.99,,,0.00,weatherlink.com 1.10,2013-05-04 15:21:00,
2013-05-04 08:36:00,57.1,50.0,29.68,South,175,0.0,-999.0,76,-99.99,,,0.00,weatherlink.com 1.10,2013-05-04 15:36:00,
2013-05-04 08:52:00,60.1,50.0,29.68,South,175,0.0,-999.0,69,-99.99,,,0.00,weatherlink.com 1.10,2013-05-04 15:52:00,
2013-05-04 09:07:00,63.8,52.0,29.67,South,175,0.0,-999.0,66,-99.99,,,0.00,weatherlink.com 1.10,2013-05-04 16:07:00,
2013-05-04 09:22:00,67.7,53.0,29.67,South,175,0.0,-999.0,59,-99.99,,,0.00,weatherlink.com 1.10,2013-05-04 16:22:00,
2013-05-04 09:37:00,71.8,49.0,29.66,South,178,0.0,-999.0,44,-99.99,,,0.00,weatherlink.com 1.10,2013-05-04 16:37:00,
2013-05-04 09:52:00,75.0,48.0,29.66,South,176,0.0,-999.0,38,-99.99,,,0.00,weatherlink.com 1.10,2013-05-04 16:52:00,
2013-05-04 10:07:00,77.4,48.0,29.65,SSE,167,0.0,-999.0,35,-99.99,,,0.00,weatherlink.com 1.10,2013-05-04 17:07:00,
2013-05-04 10:22:00,78.8,47.0,29.65,SSE,162,0.0,-999.0,33,-99.99,,,0.00,weatherlink.com 1.10,2013-05-04 17:22:00,
2013-05-04 10:37:00,79.8,50.0,29.66,South,175,0.0,-999.0,35,-99.99,,,0.00,weatherlink.com 1.10,2013-05-04 17:37:00,
2013-05-04 10:52:00,79.7,50.0,29.66,ESE,123,0.0,-999.0,36,-99.99,,,0.00,weatherlink.com 1.10,2013-05-04 17:52:00,
2013-05-04 11:07:00,79.4,49.0,29.66,ESE,110,0.0,-999.0,35,-99.99,,,0.00,weatherlink.com 1.10,2013-05-04 18:07:00,
2013-05-04 11:22:00,80.4,51.0,29.66,South,170,0.0,-999.0,36,-99.99,,,0.00,weatherlink.com 1.10,2013-05-04 18:22:00,
2013-05-04 11:37:00,80.3,51.0,29.66,ESE,113,0.0,-999.0,36,-99.99,,,0.00,weatherlink.com 1.10,2013-05-04 18:37:00,
2013-05-04 11:52:00,79.3,51.0,29.65,East,91,0.0,-999.0,37,-99.99,,,0.00,weatherlink.com 1.10,2013-05-04 18:52:00,
2013-05-04 12:07:00,78.8,52.0,29.64,SSW,203,0.0,-999.0,39,-99.99,,,0.00,weatherlink.com 1.10,2013-05-04 19:07:00,
2013-05-04 12:22:00,79.3,53.0,29.64,SE,126,0.0,-999.0,40,-99.99,,,0.00,weatherlink.com 1.10,2013-05-04 19:22:00,
2013-05-04 12:37:00,80.7,51.0,29.62,SE,130,0.0,-999.0,36,-99.99,,,0.00,weatherlink.com 1.10,2013-05-04 19:37:00,
2013-05-04 12:52:00,81.2,51.0,29.62,ESE,123,0.0,-999.0,35,-99.99,,,0.00,weatherlink.com 1.10,2013-05-04 19:52:00,
2013-05-04 13:07:00,81.6,53.0,29.61,ESE,111,1.0,-999.0,37,-99.99,,,0.00,weatherlink.com 1.10,2013-05-04 20:07:00,
2013-05-04 13:22:00,81.9,52.0,29.61,SSW,192,2.0,-999.0,35,-99.99,,,0.00,weatherlink.com 1.10,2013-05-04 20:22:00,
2013-05-04 13:37:00,81.0,52.0,29.61,South,183,0.0,-999.0,37,-99.99,,,0.00,weatherlink.com 1.10,2013-05-04 20:37:00,
2013-05-04 13:52:00,80.3,50.0,29.61,West,261,0.0,-999.0,35,-99.99,,,0.00,weatherlink.com 1.10,2013-05-04 20:52:00,
2013-05-04 14:07:00,78.8,47.0,29.61,NNE,16,0.0,-999.0,33,-99.99,,,0.00,weatherlink.com 1.10,2013-05-04 21:07:00,
2013-05-04 14:22:00,76.3,49.0,29.61,East,81,5.0,-999.0,38,-99.99,,,0.00,weatherlink.com 1.10,2013-05-04 21:22:00,
2013-05-04 14:37:00,73.1,50.0,29.60,SSE,160,1.0,-999.0,45,-99.99,,,0.00,weatherlink.com 1.10,2013-05-04 21:37:00,
2013-05-04 14:52:00,72.1,52.0,29.60,SSE,155,2.0,-999.0,49,-99.99,,,0.00,weatherlink.com 1.10,2013-05-04 21:52:00,
2013-05-04 15:07:00,71.6,53.0,29.60,ESE,113,3.0,-999.0,52,-99.99,,,0.00,weatherlink.com 1.10,2013-05-04 22:07:00,
2013-05-04 15:22:00,69.9,52.0,29.60,East,101,1.0,-999.0,53,-99.99,,,0.00,weatherlink.com 1.10,2013-05-04 22:22:00,
2013-05-04 15:37:00,67.1,52.0,29.59,ESE,117,2.0,-999.0,59,-99.99,,,0.00,weatherlink.com 1.10,2013-05-04 22:37:00,
2013-05-04 15:52:00,64.8,52.0,29.59,ENE,68,2.0,-999.0,64,-99.99,,,0.00,weatherlink.com 1.10,2013-05-04 22:52:00,
2013-05-04 16:07:00,64.4,53.0,29.59,NE,49,3.0,-999.0,67,-99.99,,,0.00,weatherlink.com 1.10,2013-05-04 23:07:00,
2013-05-04 16:22:00,63.1,53.0,29.58,ENE,63,6.0,-999.0,70,-99.99,,,0.00,weatherlink.com 1.10,2013-05-04 23:22:00,
2013-05-04 16:37:00,62.1,53.0,29.59,NE,51,5.0,-999.0,72,-99.99,,,0.00,weatherlink.com 1.10,2013-05-04 23:37:00,
2013-05-04 16:52:00,60.5,53.0,29.58,NNW,338,0.0,-999.0,76,-99.99,,,0.00,weatherlink.com 1.10,2013-05-04 23:52:00,
2013-05-04 17:07:00,60.7,53.0,29.57,NE,49,2.0,-999.0,75,-99.99,,,0.00,weatherlink.com 1.10,2013-05-05 00:07:00,
2013-05-04 17:22:00,60.1,53.0,29.58,East,80,2.0,-999.0,76,-99.99,,,0.00,weatherlink.com 1.10,2013-05-05 00:22:00,
2013-05-04 17:38:00,59.3,52.0,29.58,NNW,347,2.0,-999.0,78,-99.99,,,0.00,weatherlink.com 1.10,2013-05-05 00:38:00,
2013-05-04 17:53:00,57.7,52.0,29.58,NW,323,0.0,-999.0,81,-99.99,,,0.00,weatherlink.com 1.10,2013-05-05 00:53:00,
2013-05-04 18:08:00,57.0,52.0,29.58,NNW,343,3.0,-999.0,83,-99.99,,,0.00,weatherlink.com 1.10,2013-05-05 01:08:00,
2013-05-04 18:23:00,57.0,52.0,29.58,West,278,0.0,-999.0,83,-99.99,,,0.00,weatherlink.com 1.10,2013-05-05 01:23:00,
2013-05-04 18:38:00,57.0,52.0,29.58,East,82,3.0,-999.0,83,-99.99,,,0.00,weatherlink.com 1.10,2013-05-05 01:38:00,
2013-05-04 18:53:00,56.4,52.0,29.58,East,88,3.0,-999.0,84,-99.99,,,0.00,weatherlink.com 1.10,2013-05-05 01:53:00,
2013-05-04 19:08:00,55.8,52.0,29.58,NE,46,1.0,-999.0,86,-99.99,,,0.00,weatherlink.com 1.10,2013-05-05 02:08:00,
2013-05-04 19:23:00,55.4,52.0,29.59,NNE,28,2.0,-999.0,87,-99.99,,,0.00,weatherlink.com 1.10,2013-05-05 02:23:00,
2013-05-04 19:38:00,55.0,52.0,29.59,East,88,1.0,-999.0,88,-99.99,,,0.00,weatherlink.com 1.10,2013-05-05 02:38:00,
2013-05-04 19:53:00,54.9,52.0,29.58,ENE,67,0.0,-999.0,88,-99.99,,,0.00,weatherlink.com 1.10,2013-05-05 02:53:00,
2013-05-04 20:08:00,54.7,51.0,29.59,South,184,0.0,-999.0,88,-99.99,,,0.00,weatherlink.com 1.10,2013-05-05 03:08:00,
2013-05-04 20:23:00,54.6,51.0,29.60,NNE,18,1.0,-999.0,88,-99.99,,,0.00,weatherlink.com 1.10,2013-05-05 03:23:00,
2013-05-04 20:38:00,54.4,51.0,29.61,ENE,63,2.0,-999.0,88,-99.99,,,0.00,weatherlink.com 1.10,2013-05-05 03:38:00,
2013-05-04 20:53:00,54.5,51.0,29.61,ESE,120,0.0,-999.0,88,-99.99,,,0.00,weatherlink.com 1.10,2013-05-05 03:53:00,
2013-05-04 21:08:00,54.4,51.0,29.61,East,90,1.0,-999.0,88,-99.99,,,0.00,weatherlink.com 1.10,2013-05-05 04:08:00,
2013-05-04 21:23:00,54.4,51.0,29.62,ESE,110,0.0,-999.0,88,-99.99,,,0.00,weatherlink.com 1.10,2013-05-05 04:23:00,
2013-05-04 21:38:00,54.5,51.0,29.62,SSW,196,2.0,-999.0,87,-99.99,,,0.00,weatherlink.com 1.10,2013-05-05 04:38:00,
2013-05-04 21:53:00,54.4,51.0,29.63,SSE,153,0.0,-999.0,88,-99.99,,,0.00,weatherlink.com 1.10,2013-05-05 04:53:00,
2013-05-04 22:08:00,54.3,51.0,29.62,SE,124,3.0,-999.0,88,-99.99,,,0.00,weatherlink.com 1.10,2013-05-05 05:08:00,
2013-05-04 22:23:00,54.3,51.0,29.63,South,170,10.0,-999.0,88,-99.99,,,0.00,weatherlink.com 1.10,2013-05-05 05:23:00,
2013-05-04 22:38:00,54.1,50.0,29.61,West,270,4.0,-999.0,87,-99.99,,,0.00,weatherlink.com 1.10,2013-05-05 05:38:00,
2013-05-04 22:53:00,54.0,50.0,29.61,SW,215,1.0,-999.0,87,-99.99,,,0.00,weatherlink.com 1.10,2013-05-05 05:53:00,
2013-05-04 23:08:00,53.9,50.0,29.61,WNW,293,1.0,-999.0,87,-99.99,,,0.00,weatherlink.com 1.10,2013-05-05 06:08:00,
2013-05-04 23:23:00,53.9,50.0,29.60,NW,305,3.0,-999.0,87,-99.99,,,0.00,weatherlink.com 1.10,2013-05-05 06:23:00,
2013-05-04 23:38:00,53.8,50.0,29.61,WSW,240,4.0,-999.0,87,-99.99,,,0.00,weatherlink.com 1.10,2013-05-05 06:38:00,
2013-05-04 23:53:00,53.8,50.0,29.60,West,269,7.0,-999.0,86,-99.99,,,0.00,weatherlink.com 1.10,2013-05-05 06:53:00,